createdAt,value
2023-02-14T00:22:05.561Z,3.16
2023-02-14T00:24:36.331Z,3.16
2023-02-14T00:27:05.094Z,2.55
2023-02-14T00:29:34.152Z,2.58
2023-02-14T00:32:03.766Z,2.79
2023-02-14T00:34:34.062Z,2.89
2023-02-14T00:37:04.243Z,2.87
2023-02-14T00:39:33.136Z,2.71
2023-02-14T01:02:13.762Z,3.70
2023-02-14T01:04:42.573Z,3.70
2023-02-14T01:07:10.553Z,2.98
2023-02-14T01:09:38.568Z,3.05
2023-02-14T01:12:07.636Z,3.10
2023-02-14T01:14:35.606Z,3.16
2023-02-14T01:17:03.592Z,3.07
2023-02-14T01:19:32.759Z,3.26
2023-02-14T01:37:19.089Z,3.70
2023-02-14T01:39:48.024Z,3.70
2023-02-14T01:42:16.117Z,2.95
2023-02-14T01:44:47.862Z,2.98
2023-02-14T01:47:18.441Z,2.84
2023-02-14T01:49:54.464Z,2.80
2023-02-14T01:52:34.516Z,2.57
2023-02-14T02:14:18.182Z,3.18
2023-02-14T02:16:55.752Z,3.18
2023-02-14T02:20:01.710Z,2.58
2023-02-14T02:23:00.811Z,2.56
2023-02-14T02:25:47.214Z,2.54
2023-02-14T02:46:12.179Z,2.41
2023-02-14T02:48:55.192Z,2.41
2023-02-14T02:52:03.555Z,1.56
2023-02-14T02:54:42.172Z,1.64
2023-02-14T02:57:22.152Z,1.46
2023-02-14T02:59:54.539Z,1.51
2023-02-14T03:22:05.429Z,1.22
2023-02-14T03:24:56.837Z,1.23
2023-02-14T03:27:47.576Z,1.11
2023-02-14T03:30:36.743Z,1.33
2023-02-14T03:33:14.591Z,1.26
2023-02-14T03:36:02.384Z,1.20
2023-02-14T04:00:06.942Z,1.37
2023-02-14T04:02:46.779Z,1.37
2023-02-14T04:05:28.109Z,0.77
2023-02-14T04:07:59.050Z,0.79
2023-02-14T04:10:27.694Z,0.76
2023-02-14T04:12:55.727Z,0.79
2023-02-14T04:15:24.555Z,0.76
2023-02-14T04:18:11.784Z,0.79
2023-02-14T04:38:51.764Z,1.32
2023-02-14T04:41:21.613Z,1.32
2023-02-14T04:43:49.790Z,0.56
2023-02-14T04:46:18.540Z,0.40
2023-02-14T04:48:48.825Z,0.35
2023-02-14T04:51:17.537Z,0.35
2023-02-14T04:53:45.526Z,0.45
2023-02-14T04:56:14.619Z,0.36
2023-02-14T04:58:42.650Z,0.40
2023-02-14T05:18:40.879Z,1.24
2023-02-14T05:21:09.646Z,1.24
2023-02-14T05:23:38.098Z,0.66
2023-02-14T05:26:06.771Z,0.48
2023-02-14T05:28:36.224Z,0.57
2023-02-14T05:31:04.823Z,0.52
2023-02-14T05:33:33.772Z,0.45
2023-02-14T05:36:03.102Z,0.52
2023-02-14T05:58:47.076Z,2.14
2023-02-14T06:01:15.996Z,2.14
2023-02-14T06:03:44.949Z,1.62
2023-02-14T06:06:12.996Z,1.47
2023-02-14T06:08:42.024Z,1.69
2023-02-14T06:11:10.993Z,1.64
2023-02-14T06:13:41.601Z,1.85
2023-02-14T06:16:09.977Z,1.90
2023-02-14T06:18:39.220Z,1.85
2023-02-14T06:21:08.016Z,1.76
2023-02-14T06:23:37.003Z,1.87
2023-02-14T06:31:49.449Z,2.35
2023-02-14T06:34:19.420Z,2.37
2023-02-14T06:36:48.251Z,2.48
2023-02-14T06:39:16.258Z,2.36
2023-02-14T06:41:48.293Z,2.46
2023-02-14T06:44:16.249Z,2.67
2023-02-14T06:46:49.112Z,2.57
2023-02-14T06:49:26.109Z,2.81
2023-02-14T06:52:01.499Z,2.87
2023-02-14T06:54:44.553Z,3.14
2023-02-14T06:57:29.897Z,3.57
2023-02-14T07:00:11.359Z,3.98
2023-02-14T07:03:06.831Z,4.09
2023-02-14T07:05:39.963Z,4.09
2023-02-14T07:08:31.049Z,4.22
2023-02-14T07:11:08.072Z,4.53
2023-02-14T07:13:53.568Z,4.71
2023-02-14T07:16:35.960Z,4.86
2023-02-14T07:19:20.951Z,4.95
2023-02-14T07:22:00.136Z,4.91
2023-02-14T07:24:42.560Z,4.94
2023-02-14T07:27:58.259Z,4.89
2023-02-14T07:34:16.252Z,4.58
2023-02-14T07:43:52.380Z,4.75
2023-02-14T07:46:30.618Z,4.77
2023-02-14T07:49:12.873Z,4.86
2023-02-14T07:51:51.099Z,4.65
2023-02-14T07:57:29.188Z,4.77
2023-02-14T08:06:31.838Z,5.20
2023-02-14T08:12:23.771Z,5.15
2023-02-14T08:26:39.055Z,5.48
2023-02-14T08:29:28.836Z,5.70
2023-02-14T08:32:12.442Z,5.69
2023-02-14T08:34:54.305Z,5.78
2023-02-14T08:37:29.991Z,5.80
2023-02-14T08:40:14.416Z,5.87
2023-02-14T08:43:01.085Z,6.02
2023-02-14T08:45:49.797Z,6.21
2023-02-14T08:48:31.899Z,6.05
2023-02-14T08:51:18.190Z,6.23
2023-02-14T08:54:07.267Z,6.51
2023-02-14T08:56:40.239Z,6.36
2023-02-14T08:59:29.845Z,6.52
2023-02-14T09:02:28.106Z,6.55
2023-02-14T09:08:14.707Z,6.79
2023-02-14T09:10:56.985Z,6.97
2023-02-14T09:53:50.069Z,7.99
2023-02-14T09:56:50.815Z,7.99
2023-02-14T09:59:45.934Z,7.38
2023-02-14T10:02:29.294Z,7.43
2023-02-14T10:05:06.605Z,7.46
2023-02-14T10:07:56.015Z,7.42
2023-02-14T10:13:58.416Z,7.70
2023-02-14T10:36:34.805Z,7.94
2023-02-14T10:39:11.750Z,7.98
2023-02-14T10:42:10.329Z,7.86
2023-02-14T10:44:57.776Z,7.73
2023-02-14T10:50:51.934Z,7.74
2023-02-14T10:53:44.254Z,7.67
2023-02-14T10:56:21.646Z,7.67
2023-02-14T10:58:54.256Z,7.48
2023-02-14T11:01:23.660Z,7.29
2023-02-14T11:04:04.351Z,7.54
2023-02-14T11:06:33.349Z,7.60
2023-02-14T11:09:03.670Z,7.50
2023-02-14T11:11:41.188Z,7.44
2023-02-14T11:14:30.299Z,7.47
2023-02-14T11:17:00.470Z,7.55
2023-02-14T11:19:37.301Z,7.47
2023-02-14T11:22:06.254Z,7.61
2023-02-14T11:24:45.779Z,7.52
2023-02-14T11:27:13.686Z,7.49
2023-02-14T11:29:47.267Z,7.62
2023-02-14T11:32:23.389Z,7.48
2023-02-14T11:40:40.897Z,7.64
2023-02-14T11:51:17.742Z,7.41
2023-02-14T11:53:50.167Z,7.39
2023-02-14T11:56:21.140Z,7.39
2023-02-14T11:59:08.407Z,7.48
2023-02-14T12:01:41.087Z,7.34
2023-02-14T12:04:17.963Z,7.27
2023-02-14T12:06:47.348Z,7.29
2023-02-14T12:09:25.432Z,7.17
2023-02-14T12:12:05.439Z,7.11
2023-02-14T12:14:39.564Z,7.17
2023-02-14T12:17:26.343Z,7.12
2023-02-14T12:20:17.407Z,7.17
2023-02-14T12:26:12.067Z,7.50
2023-02-14T12:28:57.183Z,7.78
2023-02-14T12:31:25.782Z,7.84
2023-02-14T12:54:23.673Z,8.20
2023-02-14T12:57:25.790Z,8.14
2023-02-14T13:00:22.327Z,8.22
2023-02-14T13:03:11.635Z,8.23
2023-02-14T13:06:29.130Z,8.39
2023-02-14T13:09:31.830Z,8.02
2023-02-14T13:12:08.049Z,8.28
2023-02-14T13:15:15.299Z,8.36
2023-02-14T13:31:40.346Z,8.91
2023-02-14T13:34:36.099Z,8.91
2023-02-14T13:37:09.734Z,8.24
2023-02-14T13:39:44.431Z,8.02
2023-02-14T13:42:13.257Z,8.02
2023-02-14T13:44:52.573Z,8.20
2023-02-14T13:47:27.198Z,7.97
2023-02-14T13:49:59.711Z,8.00
2023-02-14T13:52:48.996Z,8.18
2023-02-14T13:55:21.537Z,8.18
2023-02-14T14:00:54.330Z,7.96
2023-02-14T14:03:26.643Z,7.99
2023-02-14T14:08:39.464Z,7.72
2023-02-14T14:11:33.679Z,7.93
2023-02-14T14:14:21.499Z,7.92
2023-02-14T14:17:00.201Z,7.97
2023-02-14T14:19:28.603Z,7.66
2023-02-14T14:22:03.481Z,7.70
2023-02-14T14:24:32.985Z,7.79
2023-02-14T14:30:32.366Z,7.77
2023-02-14T15:03:12.534Z,7.36
2023-02-14T15:05:44.602Z,7.40
2023-02-14T15:08:32.916Z,7.46
2023-02-14T15:11:43.796Z,7.49
2023-02-14T15:14:24.446Z,7.21
2023-02-14T15:17:19.860Z,7.02
2023-02-14T15:22:44.997Z,6.91
2023-02-14T15:38:49.647Z,6.96
2023-02-14T15:41:20.327Z,6.96
2023-02-14T15:43:54.127Z,6.22
2023-02-14T15:46:28.344Z,6.12
2023-02-14T15:49:00.886Z,5.97
2023-02-14T15:51:32.231Z,5.81
2023-02-14T15:54:29.191Z,5.73
2023-02-14T15:57:06.302Z,5.56
2023-02-14T16:24:07.349Z,4.86
2023-02-14T16:26:40.733Z,4.86
2023-02-14T16:29:17.856Z,4.15
2023-02-14T16:34:43.767Z,3.98
2023-02-14T16:37:24.809Z,3.99
2023-02-14T16:39:55.216Z,3.87
2023-02-14T16:42:25.303Z,3.83
2023-02-14T16:44:53.830Z,3.91
2023-02-14T17:05:36.222Z,3.48
2023-02-14T17:08:09.960Z,3.34
2023-02-14T17:10:39.777Z,3.26
2023-02-14T17:13:09.105Z,2.99
2023-02-14T17:15:39.236Z,3.08
2023-02-14T17:18:12.035Z,3.08
2023-02-14T17:20:40.616Z,3.01
2023-02-14T17:23:09.169Z,2.96
2023-02-14T17:25:37.311Z,2.89
2023-02-14T17:48:54.310Z,2.47
2023-02-14T17:51:24.502Z,2.40
2023-02-14T17:53:53.755Z,2.35
2023-02-14T17:56:24.799Z,2.33
2023-02-14T17:58:55.366Z,2.25
2023-02-14T18:01:26.124Z,2.22
2023-02-14T18:03:55.490Z,2.18
2023-02-14T18:06:24.149Z,2.12
2023-02-14T18:29:07.724Z,2.53
2023-02-14T18:31:43.576Z,2.53
2023-02-14T18:34:12.810Z,1.78
2023-02-14T18:36:47.574Z,1.76
2023-02-14T18:39:17.481Z,1.76
2023-02-14T18:41:47.162Z,1.70
2023-02-14T18:44:18.768Z,1.02
2023-02-14T18:46:56.396Z,1.58
2023-02-14T18:49:40.176Z,1.53
2023-02-14T18:52:15.371Z,1.53
2023-02-14T18:54:48.447Z,1.19
2023-02-14T18:57:27.459Z,1.47
2023-02-14T19:00:07.301Z,1.48
2023-02-14T19:02:42.115Z,1.32
2023-02-14T19:05:17.690Z,1.38
2023-02-14T19:07:47.613Z,1.38
2023-02-14T19:10:16.612Z,1.32
2023-02-14T19:12:53.796Z,1.56
2023-02-14T19:35:33.819Z,1.64
2023-02-14T19:38:03.663Z,1.64
2023-02-14T19:40:31.965Z,1.12
2023-02-14T19:43:00.657Z,1.04
2023-02-14T19:45:32.658Z,1.03
2023-02-14T19:48:03.571Z,1.01
2023-02-14T19:50:32.263Z,1.01
2023-02-14T20:14:03.681Z,1.25
2023-02-14T20:16:34.974Z,1.25
2023-02-14T20:19:12.233Z,0.52
2023-02-14T20:21:46.477Z,0.45
2023-02-14T20:24:20.329Z,0.46
2023-02-14T20:26:49.894Z,0.45
2023-02-14T20:52:51.855Z,0.75
2023-02-14T20:55:21.288Z,0.75
2023-02-14T20:57:50.713Z,0.02
2023-02-14T21:00:19.950Z,0.00
2023-02-14T21:02:48.514Z,0.00
2023-02-14T21:05:18.575Z,0.02
2023-02-14T21:07:47.672Z,0.00
2023-02-14T21:10:19.171Z,-0.04
2023-02-14T21:28:33.504Z,0.32
2023-02-14T21:31:09.174Z,0.32
2023-02-14T21:33:39.594Z,-0.45
2023-02-14T21:36:09.127Z,-0.52
2023-02-14T21:38:38.462Z,-0.70
2023-02-14T21:41:15.583Z,-0.70
2023-02-14T21:43:46.115Z,-0.76
2023-02-14T21:46:19.458Z,-0.72
2023-02-14T22:04:13.013Z,-0.08
2023-02-14T22:06:42.776Z,-0.08
2023-02-14T22:09:13.637Z,-0.77
2023-02-14T22:11:42.327Z,-0.96
2023-02-14T22:14:11.283Z,-0.99
2023-02-14T22:16:39.906Z,-1.00
2023-02-14T22:19:14.246Z,-1.04
2023-02-14T22:41:53.438Z,-0.42
2023-02-14T22:44:23.013Z,-0.42
2023-02-14T22:46:51.174Z,-1.10
2023-02-14T22:49:20.060Z,-1.16
2023-02-14T22:51:48.281Z,-1.31
2023-02-14T22:54:17.191Z,-1.23
2023-02-14T22:56:48.183Z,-1.27
2023-02-14T23:21:01.561Z,-0.62
2023-02-14T23:23:34.290Z,-0.62
2023-02-14T23:26:03.021Z,-1.32
2023-02-14T23:28:31.353Z,-1.49
2023-02-14T23:31:01.831Z,-1.50
2023-02-14T23:33:30.725Z,-1.49
2023-02-14T23:36:04.073Z,-1.44
2023-02-14T23:38:32.928Z,-1.44
